Time;durP1;ratioP1;P1;durP2;ratioP2;P2;SDS_P1;SDS_P2;PMS_P1;PMS_P2;Temp;Humidity;BMP_temperature;BMP_pressure;BME280_temperature;BME280_humidity;BME280_pressure;Samples;Min_cycle;Max_cycle;Signal;HPM_P1;HPM_P2
2021/03/05 00:00:34;;;;;;;12.43;5.75;;;;;;;;;;5055595;28;20304;-74
2021/03/05 00:03:01;;;;;;;9.13;5.68;;;;;;;;;;5055606;28;20225;-74
2021/03/05 00:05:27;;;;;;;9.43;5.40;;;;;;;;;;5041963;28;20289;-76
2021/03/05 00:07:53;;;;;;;6.63;4.90;;;;;;;;;;5054601;28;20319;-75
2021/03/05 00:10:21;;;;;;;8.77;5.35;;;;;;;;;;5056124;28;20543;-74
2021/03/05 00:12:47;;;;;;;7.78;4.53;;;;;;;;;;5054981;28;20198;-75
2021/03/05 00:15:13;;;;;;;9.27;5.13;;;;;;;;;;5039179;28;20416;-74
2021/03/05 00:17:39;;;;;;;11.38;5.28;;;;;;;;;;5035798;28;20601;-75
2021/03/05 00:20:07;;;;;;;8.88;5.68;;;;;;;;;;5035744;28;20225;-74
2021/03/05 00:22:33;;;;;;;9.30;5.50;;;;;;;;;;5035746;28;20186;-74
2021/03/05 00:24:59;;;;;;;7.80;4.80;;;;;;;;;;5043101;28;20190;-74
2021/03/05 00:27:25;;;;;;;9.70;4.60;;;;;;;;;;5050059;28;20193;-75
2021/03/05 00:29:51;;;;;;;8.57;5.03;;;;;;;;;;5055475;28;20535;-73
2021/03/05 00:32:17;;;;;;;5.22;4.20;;;;;;;;;;5055153;28;20826;-73
2021/03/05 00:34:43;;;;;;;9.47;4.70;;;;;;;;;;5049115;28;20233;-72
2021/03/05 00:37:09;;;;;;;6.33;4.17;;;;;;;;;;5036470;28;20441;-74
2021/03/05 00:39:35;;;;;;;7.70;4.20;;;;;;;;;;5039753;28;20443;-75
2021/03/05 00:42:02;;;;;;;9.13;5.75;;;;;;;;;;5054831;28;20262;-73
2021/03/05 00:44:28;;;;;;;10.05;5.93;;;;;;;;;;5053492;28;20192;-74
2021/03/05 00:46:54;;;;;;;8.37;5.20;;;;;;;;;;5039141;28;20205;-75
2021/03/05 00:49:19;;;;;;;8.37;5.60;;;;;;;;;;5047613;28;20441;-74
2021/03/05 00:51:45;;;;;;;10.47;5.80;;;;;;;;;;5033844;28;20819;-73
2021/03/05 00:54:12;;;;;;;8.40;5.33;;;;;;;;;;5035478;28;20465;-74
2021/03/05 00:56:38;;;;;;;8.90;5.80;;;;;;;;;;5036042;28;20578;-73
2021/03/05 00:59:04;;;;;;;6.90;4.00;;;;;;;;;;5035165;28;20620;-72
2021/03/05 01:01:30;;;;;;;9.18;5.38;;;;;;;;;;5038861;28;20796;-74
2021/03/05 01:03:56;;;;;;;8.73;6.43;;;;;;;;;;5055275;28;20209;-72
2021/03/05 01:06:22;;;;;;;13.10;6.17;;;;;;;;;;5045830;28;20436;-73
2021/03/05 01:08:48;;;;;;;14.97;6.57;;;;;;;;;;5054771;28;20424;-74
2021/03/05 01:11:15;;;;;;;10.23;5.90;;;;;;;;;;5036459;28;20472;-72
2021/03/05 01:13:41;;;;;;;14.00;6.40;;;;;;;;;;5051767;28;21329;-74
2021/03/05 01:16:06;;;;;;;15.07;6.33;;;;;;;;;;5054448;28;20288;-73
2021/03/05 01:18:32;;;;;;;16.20;6.70;;;;;;;;;;5054405;28;20488;-77
2021/03/05 01:20:58;;;;;;;16.40;8.67;;;;;;;;;;5039813;28;20480;-73
2021/03/05 01:23:24;;;;;;;13.82;7.15;;;;;;;;;;5034668;28;20421;-75
2021/03/05 01:25:50;;;;;;;15.27;7.80;;;;;;;;;;5034638;28;20292;-74
2021/03/05 01:28:17;;;;;;;11.80;4.97;;;;;;;;;;5034659;28;20638;-72
2021/03/05 01:30:43;;;;;;;9.48;5.82;;;;;;;;;;5034173;28;20532;-74
2021/03/05 01:33:09;;;;;;;10.80;6.30;;;;;;;;;;5034546;28;20229;-73
2021/03/05 01:35:35;;;;;;;14.27;6.22;;;;;;;;;;5034007;28;20233;-74
2021/03/05 01:38:01;;;;;;;10.23;5.85;;;;;;;;;;5034313;28;20248;-75
2021/03/05 01:40:29;;;;;;;6.63;4.60;;;;;;;;;;5033813;28;20225;-73
2021/03/05 01:42:55;;;;;;;9.55;5.22;;;;;;;;;;5049781;28;20223;-73
2021/03/05 01:45:22;;;;;;;11.02;5.53;;;;;;;;;;5053067;28;20205;-74
2021/03/05 01:47:49;;;;;;;10.23;4.82;;;;;;;;;;5053326;28;20225;-72
2021/03/05 01:50:17;;;;;;;17.33;6.05;;;;;;;;;;5053468;28;20252;-72
2021/03/05 01:52:44;;;;;;;13.90;5.60;;;;;;;;;;5041654;28;20557;-73
2021/03/05 01:55:11;;;;;;;9.98;4.95;;;;;;;;;;5043127;28;20228;-75
2021/03/05 01:57:37;;;;;;;10.27;4.97;;;;;;;;;;5053071;28;20193;-74
2021/03/05 02:00:04;;;;;;;11.48;5.90;;;;;;;;;;5053380;28;20221;-73
2021/03/05 02:02:30;;;;;;;14.75;6.57;;;;;;;;;;5045748;28;20216;-72
2021/03/05 02:04:56;;;;;;;13.23;5.80;;;;;;;;;;5033729;28;20289;-73
2021/03/05 02:07:22;;;;;;;10.63;5.50;;;;;;;;;;5036478;28;20507;-72
2021/03/05 02:09:48;;;;;;;10.80;5.10;;;;;;;;;;5053572;28;20919;-75
2021/03/05 02:12:14;;;;;;;12.80;5.83;;;;;;;;;;5053450;28;20443;-74
2021/03/05 02:14:40;;;;;;;15.37;4.93;;;;;;;;;;5053568;28;20450;-72
2021/03/05 02:17:09;;;;;;;13.05;4.93;;;;;;;;;;5053231;28;20523;-73
2021/03/05 02:19:56;;;;;;;8.90;5.53;;;;;;;;;;5036816;28;20222;-74
2021/03/05 02:22:32;;;;;;;13.90;5.90;;;;;;;;;;5033973;28;20265;-73
2021/03/05 02:25:17;;;;;;;17.27;6.68;;;;;;;;;;5034601;28;20201;-73
2021/03/05 02:28:02;;;;;;;12.30;5.25;;;;;;;;;;5033302;28;20236;-73
2021/03/05 02:30:48;;;;;;;10.93;5.95;;;;;;;;;;5033481;28;20545;-72
2021/03/05 02:33:18;;;;;;;9.85;5.88;;;;;;;;;;5029416;28;20552;-74
2021/03/05 02:35:46;;;;;;;10.15;5.20;;;;;;;;;;5034657;28;20229;-74
2021/03/05 02:38:13;;;;;;;18.85;6.40;;;;;;;;;;5032718;28;20237;-73
2021/03/05 02:40:40;;;;;;;9.18;4.63;;;;;;;;;;5034169;28;20206;-73
2021/03/05 02:43:08;;;;;;;10.15;4.72;;;;;;;;;;5033233;28;20273;-73
2021/03/05 02:45:35;;;;;;;8.13;4.45;;;;;;;;;;5034248;28;20241;-73
2021/03/05 02:48:02;;;;;;;18.92;6.57;;;;;;;;;;5033370;28;20616;-75
2021/03/05 02:50:30;;;;;;;12.32;5.40;;;;;;;;;;5033237;28;20193;-72
2021/03/05 02:52:56;;;;;;;14.18;5.32;;;;;;;;;;5043647;28;20197;-74
2021/03/05 02:55:23;;;;;;;8.48;4.72;;;;;;;;;;5039596;28;20244;-74
2021/03/05 02:57:51;;;;;;;8.18;4.05;;;;;;;;;;5032781;28;20201;-73
2021/03/05 03:00:18;;;;;;;12.57;5.32;;;;;;;;;;5046149;28;20200;-73
2021/03/05 03:02:46;;;;;;;10.80;5.75;;;;;;;;;;5052287;28;20548;-74
2021/03/05 03:05:13;;;;;;;16.88;5.60;;;;;;;;;;5052217;28;20208;-73
2021/03/05 03:07:40;;;;;;;13.93;5.63;;;;;;;;;;5052079;28;20281;-74
2021/03/05 03:10:07;;;;;;;12.85;5.72;;;;;;;;;;5051649;28;20310;-75
2021/03/05 03:12:34;;;;;;;12.60;4.65;;;;;;;;;;5037814;28;20281;-74
2021/03/05 03:15:00;;;;;;;11.60;4.90;;;;;;;;;;5055634;28;20619;-74
2021/03/05 03:17:28;;;;;;;10.45;5.78;;;;;;;;;;5039076;28;20700;-75
2021/03/05 03:19:54;;;;;;;10.23;5.05;;;;;;;;;;5036589;28;20276;-73
2021/03/05 03:22:21;;;;;;;9.25;4.93;;;;;;;;;;5036701;28;20222;-74
2021/03/05 03:24:48;;;;;;;10.38;5.18;;;;;;;;;;5036592;28;20276;-74
2021/03/05 03:27:14;;;;;;;14.25;5.15;;;;;;;;;;5036334;28;20277;-74
2021/03/05 03:29:41;;;;;;;10.00;5.30;;;;;;;;;;5040995;28;20189;-73
2021/03/05 03:32:09;;;;;;;13.85;4.85;;;;;;;;;;5041529;28;20505;-75
2021/03/05 03:34:35;;;;;;;10.32;4.70;;;;;;;;;;5056240;28;20229;-75
2021/03/05 03:37:01;;;;;;;10.73;5.47;;;;;;;;;;5046560;28;20253;-73
2021/03/05 03:39:26;;;;;;;10.48;4.97;;;;;;;;;;5036530;28;20949;-74
2021/03/05 03:41:54;;;;;;;9.30;4.97;;;;;;;;;;5038532;28;20214;-73
2021/03/05 03:44:20;;;;;;;17.00;6.50;;;;;;;;;;5055307;28;20501;-74
2021/03/05 03:46:48;;;;;;;10.90;5.10;;;;;;;;;;5041350;28;20656;-71
2021/03/05 03:49:17;;;;;;;12.88;5.60;;;;;;;;;;5036530;28;20808;-73
2021/03/05 03:51:46;;;;;;;13.27;4.93;;;;;;;;;;5038700;28;20629;-74
2021/03/05 03:54:14;;;;;;;14.65;5.40;;;;;;;;;;5055854;28;20212;-74
2021/03/05 03:56:41;;;;;;;7.75;4.05;;;;;;;;;;5055361;28;20182;-76
2021/03/05 03:59:09;;;;;;;11.27;5.22;;;;;;;;;;5056028;28;20193;-74
2021/03/05 04:01:36;;;;;;;17.92;4.95;;;;;;;;;;5054694;28;20219;-73
2021/03/05 04:04:03;;;;;;;15.07;6.53;;;;;;;;;;5056314;28;20224;-74
2021/03/05 04:06:29;;;;;;;11.80;5.35;;;;;;;;;;5055312;28;20233;-73
2021/03/05 04:08:56;;;;;;;7.68;4.40;;;;;;;;;;5055941;28;20255;-74
2021/03/05 04:11:23;;;;;;;8.13;4.20;;;;;;;;;;5055706;28;20186;-74
2021/03/05 04:13:50;;;;;;;13.75;3.72;;;;;;;;;;5047324;28;20193;-74
2021/03/05 04:16:17;;;;;;;8.55;4.30;;;;;;;;;;5055750;28;20270;-73
2021/03/05 04:18:43;;;;;;;14.75;5.50;;;;;;;;;;5049992;28;20612;-74
2021/03/05 04:21:10;;;;;;;9.70;5.60;;;;;;;;;;5049087;28;20252;-74
2021/03/05 04:23:37;;;;;;;13.93;5.30;;;;;;;;;;5054896;28;20488;-73
2021/03/05 04:26:03;;;;;;;13.40;5.28;;;;;;;;;;5054023;28;20604;-72
2021/03/05 04:28:29;;;;;;;16.90;6.05;;;;;;;;;;5055821;28;20205;-73
2021/03/05 04:30:54;;;;;;;15.02;5.72;;;;;;;;;;5055239;28;20277;-72
2021/03/05 04:33:21;;;;;;;10.40;5.13;;;;;;;;;;5055613;28;20228;-72
2021/03/05 04:35:47;;;;;;;9.18;4.13;;;;;;;;;;5054101;28;20482;-75
2021/03/05 04:38:13;;;;;;;15.57;6.28;;;;;;;;;;5054993;28;20221;-73
2021/03/05 04:40:39;;;;;;;12.70;4.07;;;;;;;;;;5054602;28;20267;-73
2021/03/05 04:43:05;;;;;;;8.47;4.03;;;;;;;;;;5055074;28;20443;-73
2021/03/05 04:45:31;;;;;;;10.33;5.10;;;;;;;;;;5054456;28;20443;-74
2021/03/05 04:47:57;;;;;;;9.40;4.25;;;;;;;;;;5043602;28;20524;-74
2021/03/05 04:50:24;;;;;;;16.23;5.67;;;;;;;;;;5042520;28;20690;-73
2021/03/05 04:52:50;;;;;;;15.32;5.78;;;;;;;;;;5054846;28;20448;-73
2021/03/05 04:55:16;;;;;;;10.40;5.87;;;;;;;;;;5047296;28;20224;-74
2021/03/05 04:57:42;;;;;;;11.02;5.38;;;;;;;;;;5035038;28;20445;-72
2021/03/05 05:00:08;;;;;;;12.27;6.00;;;;;;;;;;5034716;28;20223;-73
2021/03/05 05:02:34;;;;;;;11.07;5.53;;;;;;;;;;5034741;28;20574;-73
2021/03/05 05:05:00;;;;;;;10.87;5.13;;;;;;;;;;5054569;28;20197;-72
2021/03/05 05:07:27;;;;;;;12.77;5.20;;;;;;;;;;5052155;28;20462;-73
2021/03/05 05:09:54;;;;;;;13.52;4.78;;;;;;;;;;5034327;28;20201;-75
2021/03/05 05:12:20;;;;;;;15.73;5.85;;;;;;;;;;5054350;28;20186;-73
2021/03/05 05:14:45;;;;;;;12.97;5.90;;;;;;;;;;5054461;28;20194;-73
2021/03/05 05:17:11;;;;;;;12.60;5.30;;;;;;;;;;5035854;28;20462;-73
2021/03/05 05:19:37;;;;;;;17.70;9.77;;;;;;;;;;5039034;28;20447;-73
2021/03/05 05:22:03;;;;;;;10.37;5.63;;;;;;;;;;5052662;28;20496;-75
2021/03/05 05:24:30;;;;;;;13.73;5.73;;;;;;;;;;5053901;28;20582;-74
2021/03/05 05:26:56;;;;;;;15.05;5.55;;;;;;;;;;5044807;28;20436;-74
2021/03/05 05:29:22;;;;;;;13.07;5.53;;;;;;;;;;5042182;28;20212;-73
2021/03/05 05:31:48;;;;;;;12.70;6.50;;;;;;;;;;5034125;28;20236;-74
2021/03/05 05:34:14;;;;;;;11.57;7.05;;;;;;;;;;5039508;28;20259;-74
2021/03/05 05:36:40;;;;;;;19.10;6.33;;;;;;;;;;5045655;28;20613;-71
2021/03/05 05:39:06;;;;;;;9.93;5.33;;;;;;;;;;5033427;28;20483;-73
2021/03/05 05:41:33;;;;;;;14.77;4.67;;;;;;;;;;5033893;28;20476;-74
2021/03/05 05:43:59;;;;;;;11.57;4.85;;;;;;;;;;5039551;28;20523;-72
2021/03/05 05:46:27;;;;;;;13.93;5.25;;;;;;;;;;5053562;28;20208;-73
2021/03/05 05:48:53;;;;;;;14.00;6.30;;;;;;;;;;5034111;28;20678;-76
2021/03/05 05:51:21;;;;;;;13.27;5.67;;;;;;;;;;5034168;28;20186;-72
2021/03/05 05:53:47;;;;;;;14.43;5.57;;;;;;;;;;5033779;28;20857;-73
2021/03/05 05:56:14;;;;;;;12.27;5.60;;;;;;;;;;5051597;28;20247;-74
2021/03/05 05:58:41;;;;;;;8.57;4.80;;;;;;;;;;5053096;28;20192;-74
2021/03/05 06:01:07;;;;;;;9.27;5.10;;;;;;;;;;5051366;28;20237;-72
2021/03/05 06:03:34;;;;;;;9.15;2.40;;;;;;;;;;5041876;28;20694;-72
2021/03/05 06:06:00;;;;;;;17.95;6.95;;;;;;;;;;5047312;28;20193;-74
2021/03/05 06:08:28;;;;;;;7.97;4.05;;;;;;;;;;5034080;28;20190;-72
2021/03/05 06:10:54;;;;;;;14.82;6.35;;;;;;;;;;5037870;28;20283;-73
2021/03/05 06:13:20;;;;;;;9.63;5.28;;;;;;;;;;5047876;28;20281;-73
2021/03/05 06:16:07;;;;;;;13.50;5.63;;;;;;;;;;5033427;28;20186;-73
2021/03/05 06:18:33;;;;;;;10.80;5.63;;;;;;;;;;5032815;28;20484;-74
2021/03/05 06:20:59;;;;;;;12.50;5.10;;;;;;;;;;5033504;28;20310;-74
2021/03/05 06:23:27;;;;;;;12.00;5.80;;;;;;;;;;5038998;28;20192;-71
2021/03/05 06:25:58;;;;;;;15.40;5.53;;;;;;;;;;5052398;28;20205;-73
2021/03/05 06:28:24;;;;;;;12.90;5.07;;;;;;;;;;5048998;28;20188;-73
2021/03/05 06:30:50;;;;;;;14.93;6.18;;;;;;;;;;5052888;28;20184;-73
2021/03/05 06:33:26;;;;;;;7.82;4.50;;;;;;;;;;5053251;28;20230;-73
2021/03/05 06:35:53;;;;;;;8.00;5.10;;;;;;;;;;5039028;28;20232;-74
2021/03/05 06:38:33;;;;;;;7.32;4.40;;;;;;;;;;5041805;28;20204;-72
2021/03/05 06:41:13;;;;;;;7.72;4.38;;;;;;;;;;5051684;28;20216;-71
2021/03/05 06:43:43;;;;;;;8.43;4.45;;;;;;;;;;5045529;28;20248;-72
2021/03/05 06:46:24;;;;;;;11.20;5.72;;;;;;;;;;5033004;28;20196;-74
2021/03/05 06:48:51;;;;;;;8.35;3.90;;;;;;;;;;5032165;28;20249;-73
2021/03/05 06:51:17;;;;;;;7.45;5.18;;;;;;;;;;5050614;28;20260;-73
2021/03/05 06:53:43;;;;;;;10.05;5.07;;;;;;;;;;5052142;28;20235;-75
2021/03/05 06:56:23;;;;;;;12.82;5.93;;;;;;;;;;5052328;28;20566;-73
2021/03/05 06:58:57;;;;;;;11.93;4.95;;;;;;;;;;5052948;28;20244;-74
2021/03/05 07:01:23;;;;;;;13.80;6.10;;;;;;;;;;5053204;28;20205;-72
2021/03/05 07:04:03;;;;;;;12.68;4.78;;;;;;;;;;5052974;28;20235;-72
2021/03/05 07:06:29;;;;;;;12.05;5.90;;;;;;;;;;5052505;28;20697;-73
2021/03/05 07:08:54;;;;;;;8.30;4.60;;;;;;;;;;5052767;28;20200;-74
2021/03/05 07:11:31;;;;;;;7.63;3.70;;;;;;;;;;5052776;28;20454;-74
2021/03/05 07:13:57;;;;;;;8.43;4.43;;;;;;;;;;5052258;28;20428;-72
2021/03/05 07:16:23;;;;;;;12.10;5.07;;;;;;;;;;5050809;28;20569;-73
2021/03/05 07:18:49;;;;;;;11.30;5.30;;;;;;;;;;5051347;28;20539;-73
2021/03/05 07:21:17;;;;;;;12.70;4.80;;;;;;;;;;5051314;28;20473;-72
2021/03/05 07:23:44;;;;;;;10.13;4.30;;;;;;;;;;5052193;28;20224;-71
2021/03/05 07:26:10;;;;;;;13.85;5.50;;;;;;;;;;5049947;28;20283;-71
2021/03/05 07:28:37;;;;;;;15.20;6.43;;;;;;;;;;5051508;28;20242;-71
2021/03/05 07:31:03;;;;;;;18.92;5.63;;;;;;;;;;5052360;28;20627;-72
2021/03/05 07:33:32;;;;;;;11.50;6.00;;;;;;;;;;5051860;28;20285;-72
2021/03/05 07:35:59;;;;;;;8.25;4.47;;;;;;;;;;5051441;28;20232;-71
2021/03/05 07:38:28;;;;;;;7.45;4.10;;;;;;;;;;5051677;28;20223;-72
2021/03/05 07:40:58;;;;;;;10.95;5.07;;;;;;;;;;5051878;28;20227;-72
2021/03/05 07:43:24;;;;;;;8.18;3.60;;;;;;;;;;5051944;28;20191;-72
2021/03/05 07:45:50;;;;;;;9.48;4.80;;;;;;;;;;5051785;28;20285;-72
2021/03/05 07:48:16;;;;;;;12.93;6.18;;;;;;;;;;5051551;28;20191;-72
2021/03/05 07:50:42;;;;;;;13.80;4.22;;;;;;;;;;5051708;28;20301;-74
2021/03/05 07:53:08;;;;;;;9.77;3.80;;;;;;;;;;5051479;28;20209;-72
2021/03/05 07:55:36;;;;;;;7.43;4.70;;;;;;;;;;5052112;28;20270;-72
2021/03/05 07:58:02;;;;;;;10.00;3.88;;;;;;;;;;5052505;28;20959;-72
2021/03/05 08:00:46;;;;;;;6.10;3.83;;;;;;;;;;5053120;28;20193;-72
2021/03/05 08:03:13;;;;;;;9.63;4.65;;;;;;;;;;5055118;28;20424;-73
2021/03/05 08:05:40;;;;;;;7.50;4.53;;;;;;;;;;5054729;28;20239;-70
2021/03/05 08:08:10;;;;;;;11.13;4.63;;;;;;;;;;5054891;28;20196;-73
2021/03/05 08:10:37;;;;;;;5.15;3.55;;;;;;;;;;5054767;28;20216;-72
2021/03/05 08:13:03;;;;;;;11.35;4.50;;;;;;;;;;5054366;28;20227;-73
2021/03/05 08:15:29;;;;;;;8.88;4.78;;;;;;;;;;5054687;28;20600;-73
2021/03/05 08:17:55;;;;;;;7.30;4.05;;;;;;;;;;5043320;28;20652;-72
2021/03/05 08:20:40;;;;;;;9.38;4.40;;;;;;;;;;5048438;28;20308;-72
2021/03/05 08:23:07;;;;;;;9.63;5.07;;;;;;;;;;5054903;28;20235;-75
2021/03/05 08:25:33;;;;;;;6.70;4.05;;;;;;;;;;5054133;28;20548;-73
2021/03/05 08:28:01;;;;;;;11.75;4.97;;;;;;;;;;5040648;28;20233;-73
2021/03/05 08:30:41;;;;;;;10.48;4.82;;;;;;;;;;5044419;28;20583;-73
2021/03/05 08:33:07;;;;;;;7.78;4.95;;;;;;;;;;5055102;28;20279;-72
2021/03/05 08:35:44;;;;;;;9.75;4.47;;;;;;;;;;5054417;28;20312;-75
2021/03/05 08:38:12;;;;;;;10.57;4.35;;;;;;;;;;5055625;28;20243;-72
2021/03/05 08:40:39;;;;;;;4.00;3.60;;;;;;;;;;5055428;28;20213;-74
2021/03/05 08:43:20;;;;;;;8.80;4.28;;;;;;;;;;5054814;28;20651;-74
2021/03/05 08:45:47;;;;;;;13.32;4.78;;;;;;;;;;5055466;28;20192;-74
2021/03/05 08:48:23;;;;;;;9.65;4.60;;;;;;;;;;5054997;28;20190;-71
2021/03/05 08:50:50;;;;;;;9.18;5.05;;;;;;;;;;5054616;28;20217;-72
2021/03/05 08:53:16;;;;;;;12.60;3.58;;;;;;;;;;5055713;28;20521;-73
2021/03/05 08:55:44;;;;;;;10.23;7.25;;;;;;;;;;5055265;28;20647;-72
2021/03/05 08:58:15;;;;;;;8.52;4.65;;;;;;;;;;5054391;28;20208;-73
2021/03/05 09:00:42;;;;;;;7.47;3.40;;;;;;;;;;5054298;28;20205;-72
2021/03/05 09:03:08;;;;;;;6.38;3.45;;;;;;;;;;5054645;28;20205;-71
2021/03/05 09:05:38;;;;;;;4.00;2.67;;;;;;;;;;5054574;28;20185;-72
2021/03/05 09:08:04;;;;;;;7.18;3.47;;;;;;;;;;5055030;28;20262;-72
2021/03/05 09:10:38;;;;;;;10.20;3.63;;;;;;;;;;5054460;28;20182;-71
2021/03/05 09:13:04;;;;;;;9.32;3.83;;;;;;;;;;5053601;28;20614;-72
2021/03/05 09:15:38;;;;;;;10.20;3.35;;;;;;;;;;5054506;28;20212;-72
2021/03/05 09:18:05;;;;;;;9.45;3.13;;;;;;;;;;5050915;28;20193;-71
2021/03/05 09:20:36;;;;;;;10.25;3.88;;;;;;;;;;5054476;28;20193;-71
2021/03/05 09:23:18;;;;;;;8.68;4.60;;;;;;;;;;5054253;28;20615;-75
2021/03/05 09:25:54;;;;;;;9.18;4.72;;;;;;;;;;5054683;28;20615;-72
2021/03/05 09:28:20;;;;;;;9.43;4.05;;;;;;;;;;5054084;28;20247;-73
2021/03/05 09:30:47;;;;;;;7.43;4.38;;;;;;;;;;5054340;28;20287;-73
2021/03/05 09:33:14;;;;;;;10.63;4.43;;;;;;;;;;5054275;28;20540;-73
2021/03/05 09:35:40;;;;;;;13.95;6.03;;;;;;;;;;5053789;28;20254;-73
2021/03/05 09:38:07;;;;;;;14.70;5.35;;;;;;;;;;5053936;28;20205;-73
2021/03/05 09:40:33;;;;;;;6.00;4.00;;;;;;;;;;5054009;28;20322;-73
2021/03/05 09:43:00;;;;;;;14.15;5.82;;;;;;;;;;5053849;28;20244;-73
2021/03/05 09:45:34;;;;;;;13.32;7.15;;;;;;;;;;5053264;28;20190;-71
2021/03/05 09:48:00;;;;;;;8.20;4.78;;;;;;;;;;5053983;28;20603;-75
2021/03/05 09:50:27;;;;;;;10.40;5.65;;;;;;;;;;5054166;28;20190;-72
2021/03/05 09:52:53;;;;;;;10.57;5.35;;;;;;;;;;5053988;28;20197;-73
2021/03/05 09:55:28;;;;;;;8.18;4.82;;;;;;;;;;5053699;28;20670;-73
2021/03/05 09:57:54;;;;;;;13.25;5.88;;;;;;;;;;5053539;28;20216;-73
2021/03/05 10:00:27;;;;;;;11.45;5.53;;;;;;;;;;5053355;28;20197;-73
2021/03/05 10:03:01;;;;;;;11.15;7.15;;;;;;;;;;5053808;28;20229;-72
2021/03/05 10:05:28;;;;;;;13.52;7.45;;;;;;;;;;5053622;28;20207;-71
2021/03/05 10:07:54;;;;;;;8.48;5.75;;;;;;;;;;5052749;28;20273;-72
2021/03/05 10:10:20;;;;;;;14.03;6.13;;;;;;;;;;5053294;28;20205;-72
2021/03/05 10:12:51;;;;;;;7.95;5.40;;;;;;;;;;5053758;28;20773;-71
2021/03/05 10:15:17;;;;;;;9.45;5.65;;;;;;;;;;5053546;28;20565;-71
2021/03/05 10:17:44;;;;;;;14.13;6.57;;;;;;;;;;5043464;28;20221;-71
2021/03/05 10:20:10;;;;;;;13.70;6.93;;;;;;;;;;5033251;28;20210;-73
2021/03/05 10:22:37;;;;;;;14.13;5.95;;;;;;;;;;5034339;28;20706;-73
2021/03/05 10:25:04;;;;;;;14.40;6.07;;;;;;;;;;5053489;28;20181;-72
2021/03/05 10:27:39;;;;;;;24.55;10.90;;;;;;;;;;5053331;28;20605;-72
2021/03/05 10:30:07;;;;;;;15.05;7.57;;;;;;;;;;5052766;28;20212;-72
2021/03/05 10:32:36;;;;;;;10.65;7.22;;;;;;;;;;5053032;28;20284;-72
2021/03/05 10:35:04;;;;;;;27.15;12.05;;;;;;;;;;5052475;28;20233;-73
2021/03/05 10:37:31;;;;;;;13.95;7.57;;;;;;;;;;5053034;28;20550;-74
2021/03/05 10:39:59;;;;;;;11.15;5.78;;;;;;;;;;5052798;28;20201;-74
2021/03/05 10:42:25;;;;;;;14.20;6.97;;;;;;;;;;5053106;28;20235;-72
2021/03/05 10:44:52;;;;;;;9.25;5.53;;;;;;;;;;5053059;28;20239;-72
2021/03/05 10:47:19;;;;;;;12.07;6.30;;;;;;;;;;5052949;28;20189;-72
2021/03/05 10:49:46;;;;;;;12.60;6.25;;;;;;;;;;5052072;28;20198;-74
2021/03/05 10:52:14;;;;;;;10.27;6.55;;;;;;;;;;5052615;28;20212;-74
2021/03/05 10:54:41;;;;;;;11.18;5.18;;;;;;;;;;5052526;28;20262;-73
2021/03/05 10:57:08;;;;;;;14.18;6.13;;;;;;;;;;5052533;28;20920;-73
2021/03/05 10:59:34;;;;;;;13.52;5.35;;;;;;;;;;5052662;28;20212;-72
2021/03/05 11:02:00;;;;;;;16.93;6.10;;;;;;;;;;5052695;28;20217;-73
2021/03/05 11:04:27;;;;;;;11.48;6.10;;;;;;;;;;5053311;28;20535;-73
2021/03/05 11:06:53;;;;;;;9.38;5.28;;;;;;;;;;5032403;28;20189;-74
2021/03/05 11:09:19;;;;;;;8.90;4.53;;;;;;;;;;5032272;28;20186;-73
2021/03/05 11:11:45;;;;;;;10.82;6.28;;;;;;;;;;5032511;28;20546;-73
2021/03/05 11:14:12;;;;;;;14.90;6.80;;;;;;;;;;5036485;28;20193;-74
2021/03/05 11:16:38;;;;;;;14.50;7.05;;;;;;;;;;5052080;28;20225;-73
2021/03/05 11:19:06;;;;;;;17.48;6.47;;;;;;;;;;5052561;28;20185;-74
2021/03/05 11:21:32;;;;;;;12.48;6.18;;;;;;;;;;5051498;28;20344;-74
2021/03/05 11:23:59;;;;;;;6.18;4.05;;;;;;;;;;5052020;28;20193;-74
2021/03/05 11:26:25;;;;;;;8.45;4.65;;;;;;;;;;5052124;28;20218;-73
2021/03/05 11:28:52;;;;;;;10.82;5.55;;;;;;;;;;5051946;28;20237;-73
2021/03/05 11:31:19;;;;;;;12.15;6.47;;;;;;;;;;5051519;28;20221;-74
2021/03/05 11:33:45;;;;;;;10.77;5.65;;;;;;;;;;5052426;28;20655;-73
2021/03/05 11:36:11;;;;;;;12.45;5.78;;;;;;;;;;5054197;28;20567;-73
2021/03/05 11:38:37;;;;;;;14.27;6.30;;;;;;;;;;5055872;28;20624;-74
2021/03/05 11:41:03;;;;;;;7.28;5.45;;;;;;;;;;5055272;28;20200;-73
2021/03/05 11:43:30;;;;;;;15.77;5.55;;;;;;;;;;5055746;28;20237;-74
2021/03/05 11:45:56;;;;;;;12.55;5.78;;;;;;;;;;5055264;28;20205;-75
2021/03/05 11:48:23;;;;;;;10.15;5.20;;;;;;;;;;5054143;28;20275;-73
2021/03/05 11:50:49;;;;;;;8.07;4.93;;;;;;;;;;5056073;28;20201;-73
2021/03/05 11:53:15;;;;;;;7.87;3.87;;;;;;;;;;5055338;28;20217;-74
2021/03/05 11:55:41;;;;;;;5.10;3.75;;;;;;;;;;5055182;28;20526;-74
2021/03/05 11:58:07;;;;;;;8.93;4.97;;;;;;;;;;5055359;28;20190;-75
2021/03/05 12:00:33;;;;;;;9.50;3.97;;;;;;;;;;5055092;28;20628;-73
2021/03/05 12:02:59;;;;;;;8.02;4.60;;;;;;;;;;5055678;28;20231;-73
2021/03/05 12:05:26;;;;;;;8.77;5.03;;;;;;;;;;5051146;28;20552;-75
2021/03/05 12:07:52;;;;;;;6.82;4.25;;;;;;;;;;5054743;28;20194;-73
2021/03/05 12:10:18;;;;;;;7.60;4.63;;;;;;;;;;5054874;28;20212;-74
2021/03/05 12:12:44;;;;;;;7.75;4.72;;;;;;;;;;5054784;28;20481;-74
2021/03/05 12:15:10;;;;;;;9.82;5.70;;;;;;;;;;5053986;28;20259;-73
2021/03/05 12:17:36;;;;;;;13.52;6.15;;;;;;;;;;5054774;28;20706;-73
2021/03/05 12:20:03;;;;;;;9.70;5.60;;;;;;;;;;5054751;28;20190;-71
2021/03/05 12:22:30;;;;;;;11.98;5.28;;;;;;;;;;5054822;28;20562;-74
2021/03/05 12:24:56;;;;;;;9.05;4.95;;;;;;;;;;5054939;28;20252;-73
2021/03/05 12:27:23;;;;;;;12.87;5.20;;;;;;;;;;5055031;28;20192;-73
2021/03/05 12:29:49;;;;;;;10.93;6.20;;;;;;;;;;5054134;28;20448;-73
2021/03/05 12:32:15;;;;;;;11.20;5.87;;;;;;;;;;5054450;28;20226;-74
2021/03/05 12:34:41;;;;;;;13.00;5.80;;;;;;;;;;5054347;28;20582;-73
2021/03/05 12:37:07;;;;;;;11.32;5.50;;;;;;;;;;5054278;28;20215;-73
2021/03/05 12:39:34;;;;;;;11.27;6.50;;;;;;;;;;5054528;28;20205;-73
2021/03/05 12:42:01;;;;;;;9.43;5.90;;;;;;;;;;5054183;28;20271;-73
2021/03/05 12:44:26;;;;;;;16.40;6.20;;;;;;;;;;5053880;28;20229;-72
2021/03/05 12:46:53;;;;;;;8.38;4.72;;;;;;;;;;5052870;28;20194;-71
2021/03/05 12:49:19;;;;;;;7.75;4.93;;;;;;;;;;5054014;28;20201;-73
2021/03/05 12:51:44;;;;;;;13.73;4.53;;;;;;;;;;5053520;28;20347;-72
2021/03/05 12:54:10;;;;;;;7.70;3.83;;;;;;;;;;5053652;28;20204;-72
2021/03/05 12:56:37;;;;;;;7.85;3.83;;;;;;;;;;5053725;28;20534;-72
2021/03/05 12:59:03;;;;;;;12.35;5.10;;;;;;;;;;5053783;28;20189;-72
2021/03/05 13:01:30;;;;;;;7.50;4.13;;;;;;;;;;5052615;28;20213;-72
2021/03/05 13:03:56;;;;;;;14.07;4.22;;;;;;;;;;5054220;28;20430;-73
2021/03/05 13:06:22;;;;;;;6.00;3.83;;;;;;;;;;5038401;28;20631;-73
2021/03/05 13:08:48;;;;;;;7.17;4.80;;;;;;;;;;5034189;28;20413;-73
2021/03/05 13:11:14;;;;;;;6.13;3.90;;;;;;;;;;5052735;28;20447;-73
2021/03/05 13:13:41;;;;;;;12.50;4.85;;;;;;;;;;5053758;28;20444;-72
2021/03/05 13:16:07;;;;;;;11.57;4.90;;;;;;;;;;5053561;28;20292;-71
2021/03/05 13:18:33;;;;;;;6.30;4.77;;;;;;;;;;5053832;28;20185;-72
2021/03/05 13:20:59;;;;;;;11.55;4.80;;;;;;;;;;5054135;28;20458;-74
2021/03/05 13:23:25;;;;;;;11.50;4.05;;;;;;;;;;5053760;28;20198;-71
2021/03/05 13:25:51;;;;;;;9.65;5.18;;;;;;;;;;5052895;28;20216;-73
2021/03/05 13:28:18;;;;;;;6.60;3.40;;;;;;;;;;5053814;28;20205;-73
2021/03/05 13:30:44;;;;;;;8.45;4.20;;;;;;;;;;5053334;28;20440;-75
2021/03/05 13:33:11;;;;;;;12.40;5.65;;;;;;;;;;5053810;28;20209;-72
2021/03/05 13:35:37;;;;;;;8.00;4.50;;;;;;;;;;5053347;28;20237;-73
2021/03/05 13:38:03;;;;;;;6.55;5.13;;;;;;;;;;5053381;28;20208;-73
2021/03/05 13:40:29;;;;;;;6.45;4.10;;;;;;;;;;5053290;28;20198;-73
2021/03/05 13:42:55;;;;;;;8.02;4.78;;;;;;;;;;5053317;28;20367;-70
2021/03/05 13:45:22;;;;;;;10.40;4.53;;;;;;;;;;5053067;28;20189;-74
2021/03/05 13:47:49;;;;;;;11.55;4.88;;;;;;;;;;5052148;28;20205;-74
2021/03/05 13:50:15;;;;;;;6.95;4.50;;;;;;;;;;5053022;28;20216;-74
2021/03/05 13:52:41;;;;;;;10.00;4.35;;;;;;;;;;5051973;28;20189;-72
2021/03/05 13:55:08;;;;;;;7.93;3.83;;;;;;;;;;5052960;28;20298;-73
2021/03/05 13:57:33;;;;;;;8.18;4.20;;;;;;;;;;5052401;28;20421;-74
2021/03/05 13:59:59;;;;;;;7.73;4.87;;;;;;;;;;5052714;28;20238;-73
2021/03/05 14:02:25;;;;;;;6.60;4.43;;;;;;;;;;5052314;28;20808;-73
2021/03/05 14:04:54;;;;;;;10.60;5.20;;;;;;;;;;5052984;28;20436;-74
2021/03/05 14:07:20;;;;;;;9.25;4.53;;;;;;;;;;5052337;28;20451;-74
2021/03/05 14:09:46;;;;;;;13.38;4.65;;;;;;;;;;5033029;28;20198;-74
2021/03/05 14:12:12;;;;;;;5.30;3.77;;;;;;;;;;5033242;28;20228;-73
2021/03/05 14:14:38;;;;;;;6.18;4.50;;;;;;;;;;5033300;28;20480;-75
2021/03/05 14:17:04;;;;;;;6.50;4.07;;;;;;;;;;5033059;28;20186;-74
2021/03/05 14:19:30;;;;;;;6.15;3.67;;;;;;;;;;5033684;28;20244;-74
2021/03/05 14:21:57;;;;;;;6.30;3.20;;;;;;;;;;5043570;28;20640;-74
2021/03/05 14:24:23;;;;;;;5.32;3.85;;;;;;;;;;5052850;28;20428;-73
2021/03/05 14:26:49;;;;;;;7.78;4.70;;;;;;;;;;5052850;28;20189;-73
2021/03/05 14:29:15;;;;;;;7.22;3.83;;;;;;;;;;5051832;28;20614;-74
2021/03/05 14:31:41;;;;;;;7.35;4.30;;;;;;;;;;5053463;28;20189;-73
2021/03/05 14:34:07;;;;;;;6.57;3.70;;;;;;;;;;5052763;28;20212;-73
2021/03/05 14:36:33;;;;;;;6.47;4.50;;;;;;;;;;5052854;28;20451;-73